createdAt,value
2023-05-09T00:00:43.526Z,101724.38
2023-05-09T00:03:12.707Z,101719.22
2023-05-09T00:05:40.600Z,101715.69
2023-05-09T00:08:08.538Z,101722.19
2023-05-09T00:10:36.453Z,101711.56
2023-05-09T00:13:06.227Z,101714.28
2023-05-09T00:15:34.277Z,101714.28
2023-05-09T00:18:02.147Z,101700.94
2023-05-09T00:20:30.360Z,101692.78
2023-05-09T00:22:58.243Z,101700.13
2023-05-09T00:25:26.418Z,101690.31
2023-05-09T00:27:54.180Z,101692.22
2023-05-09T00:30:23.371Z,101694.94
2023-05-09T00:32:51.343Z,101696.00
2023-05-09T00:35:19.465Z,101681.59
2023-05-09T00:37:47.239Z,101672.88
2023-05-09T00:40:15.483Z,101676.41
2023-05-09T00:42:43.356Z,101673.94
2023-05-09T00:45:12.304Z,101681.25
2023-05-09T00:47:42.259Z,101686.69
2023-05-09T00:50:11.057Z,101675.81
2023-05-09T00:52:40.281Z,101678.78
2023-05-09T00:55:10.358Z,101672.53
2023-05-09T00:57:38.310Z,101664.63
2023-05-09T01:00:13.252Z,101663.56
2023-05-09T01:02:43.450Z,101656.47
2023-05-09T01:05:12.848Z,101647.75
2023-05-09T01:07:47.613Z,101645.84
2023-05-09T01:10:22.621Z,101637.13
2023-05-09T01:12:57.605Z,101633.84
2023-05-09T01:15:32.810Z,101643.06
2023-05-09T01:18:07.695Z,101638.69
2023-05-09T01:20:39.981Z,101634.34
2023-05-09T01:23:47.777Z,101629.97
2023-05-09T01:26:22.222Z,101612.03
2023-05-09T01:29:11.473Z,101607.91
2023-05-09T01:31:42.568Z,101610.63
2023-05-09T01:34:12.384Z,101619.03
2023-05-09T01:36:43.696Z,101607.34
2023-05-09T01:39:13.931Z,101604.88
2023-05-09T01:41:42.008Z,101604.88
2023-05-09T01:44:14.832Z,101587.81
2023-05-09T01:46:44.775Z,101597.22
2023-05-09T01:49:13.147Z,101595.31
2023-05-09T01:51:43.874Z,101593.66
2023-05-09T01:54:13.637Z,101597.44
2023-05-09T01:56:43.812Z,101576.03
2023-05-09T01:59:16.232Z,101588.72
2023-05-09T02:01:44.667Z,101588.97
2023-05-09T02:04:13.065Z,101583.53
2023-05-09T02:06:42.183Z,101579.19
2023-05-09T02:09:10.193Z,101581.06
2023-05-09T02:11:38.158Z,101567.41
2023-05-09T02:14:06.441Z,101574.81
2023-05-09T02:16:35.816Z,101569.63
2023-05-09T02:19:03.668Z,101570.47
2023-05-09T02:21:31.972Z,101568.16
2023-05-09T02:23:59.861Z,101589.72
2023-05-09T02:26:29.468Z,101583.47
2023-05-09T02:28:57.908Z,101588.06
2023-05-09T02:31:29.068Z,101568.63
2023-05-09T02:33:59.457Z,101581.00
2023-05-09T02:36:28.114Z,101581.22
2023-05-09T02:38:56.112Z,101583.13
2023-05-09T02:41:23.848Z,101583.13
2023-05-09T02:43:51.646Z,101582.53
2023-05-09T02:46:19.463Z,101569.22
2023-05-09T02:48:47.292Z,101569.22
2023-05-09T02:51:16.473Z,101562.97
2023-05-09T02:53:44.288Z,101564.03
2023-05-09T02:56:12.080Z,101558.84
2023-05-09T02:58:39.926Z,101558.28
2023-05-09T03:01:07.772Z,101550.13
2023-05-09T03:03:35.871Z,101551.19
2023-05-09T03:06:03.831Z,101545.19
2023-05-09T03:08:32.981Z,101541.66
2023-05-09T03:11:00.815Z,101532.94
2023-05-09T03:13:28.761Z,101538.38
2023-05-09T03:15:56.804Z,101532.34
2023-05-09T03:18:24.779Z,101536.97
2023-05-09T03:20:52.588Z,101528.00
2023-05-09T03:23:20.416Z,101526.34
2023-05-09T03:25:49.691Z,101523.84
2023-05-09T03:28:17.492Z,101533.06
2023-05-09T03:30:45.272Z,101525.97
2023-05-09T03:33:13.033Z,101528.69
2023-05-09T03:35:41.107Z,101523.19
2023-05-09T03:38:08.909Z,101527.06
2023-05-09T03:40:36.714Z,101521.03
2023-05-09T03:43:06.069Z,101516.59
2023-05-09T03:45:35.802Z,101518.56
2023-05-09T03:48:05.475Z,101520.47
2023-05-09T03:50:33.238Z,101518.81
2023-05-09T03:53:00.994Z,101523.44
2023-05-09T03:55:28.787Z,101515.53
2023-05-09T03:57:57.042Z,101513.63
2023-05-09T04:00:26.806Z,101511.16
2023-05-09T04:02:54.910Z,101499.91
2023-05-09T04:05:22.870Z,101506.00
2023-05-09T04:07:50.943Z,101500.56
2023-05-09T04:10:18.979Z,101492.66
2023-05-09T04:12:46.834Z,101488.31
2023-05-09T04:15:14.934Z,101484.53
2023-05-09T04:17:44.749Z,101484.78
2023-05-09T04:20:13.524Z,101482.31
2023-05-09T04:22:41.330Z,101476.88
2023-05-09T04:25:12.565Z,101484.44
2023-05-09T04:27:40.891Z,101481.72
2023-05-09T04:30:10.464Z,101489.03
2023-05-09T04:32:38.705Z,101482.78
2023-05-09T04:35:09.254Z,101476.53
2023-05-09T04:37:37.043Z,101483.03
2023-05-09T04:40:05.795Z,101477.88
2023-05-09T04:42:33.737Z,101477.88
2023-05-09T04:45:01.809Z,101467.00
2023-05-09T04:47:29.810Z,101465.38
2023-05-09T04:49:57.605Z,101465.38
2023-05-09T04:52:26.830Z,101455.56
2023-05-09T04:54:55.455Z,101458.53
2023-05-09T04:57:23.258Z,101450.41
2023-05-09T04:59:51.345Z,101452.28
2023-05-09T05:02:19.370Z,101447.94
2023-05-09T05:04:47.206Z,101439.78
2023-05-09T05:07:14.963Z,101440.03
2023-05-09T05:09:44.484Z,101432.72
2023-05-09T05:12:12.753Z,101431.91
2023-05-09T05:14:40.659Z,101414.38
2023-05-09T05:17:08.487Z,101419.41
2023-05-09T05:19:36.265Z,101416.69
2023-05-09T05:22:04.085Z,101420.47
2023-05-09T05:24:31.909Z,101429.44
2023-05-09T05:27:01.136Z,101413.81
2023-05-09T05:29:29.212Z,101404.53
2023-05-09T05:31:57.141Z,101403.13
2023-05-09T05:34:25.061Z,101408.56
2023-05-09T05:36:53.183Z,101403.72
2023-05-09T05:39:21.045Z,101403.94
2023-05-09T05:41:49.010Z,101403.13
2023-05-09T05:44:18.380Z,101399.59
2023-05-09T05:46:46.162Z,101394.41
2023-05-09T05:49:13.972Z,101393.59
2023-05-09T05:51:41.748Z,101398.78
2023-05-09T05:54:09.507Z,101395.25
2023-05-09T05:56:37.340Z,101386.84
2023-05-09T05:59:05.249Z,101386.03
2023-05-09T06:01:34.396Z,101384.97
2023-05-09T06:04:02.270Z,101374.13
2023-05-09T06:06:30.189Z,101379.88
2023-05-09T06:08:58.591Z,101378.22
2023-05-09T06:11:26.378Z,101360.47
2023-05-09T06:13:54.269Z,101358.81
2023-05-09T06:16:22.163Z,101371.16
2023-05-09T06:18:52.774Z,101366.31
2023-05-09T06:21:22.875Z,101352.97
2023-05-09T06:24:07.748Z,101360.88
2023-05-09T06:26:38.581Z,101361.69
2023-05-09T06:29:07.663Z,101362.53
2023-05-09T06:31:39.170Z,101363.34
2023-05-09T06:34:09.134Z,101351.41
2023-05-09T06:36:36.938Z,101354.13
2023-05-09T06:39:04.905Z,101356.28
2023-05-09T06:41:32.885Z,101357.91
2023-05-09T06:44:02.476Z,101350.34
2023-05-09T06:46:30.325Z,101348.72
2023-05-09T06:48:58.182Z,101339.50
2023-05-09T06:51:27.448Z,101336.78
2023-05-09T06:53:55.538Z,101332.44
2023-05-09T06:56:23.509Z,101335.97
2023-05-09T06:58:51.438Z,101328.91
2023-05-09T07:01:19.303Z,101329.72
2023-05-09T07:03:47.657Z,101329.72
2023-05-09T07:06:15.813Z,101329.47
2023-05-09T07:08:45.015Z,101327.00
2023-05-09T07:11:12.858Z,101326.75
2023-05-09T07:13:40.675Z,101312.53
2023-05-09T07:16:08.693Z,101317.78
2023-05-09T07:18:36.545Z,101315.09
2023-05-09T07:21:04.635Z,101316.72
2023-05-09T07:23:32.624Z,101315.91
2023-05-09T07:26:02.017Z,101308.25
2023-05-09T07:28:29.765Z,101322.97
2023-05-09T07:30:57.584Z,101309.41
2023-05-09T07:33:25.416Z,101307.75
2023-05-09T07:35:54.024Z,101308.59
2023-05-09T07:38:21.787Z,101309.41
2023-05-09T07:40:49.580Z,101311.31
2023-05-09T07:43:18.786Z,101308.59
2023-05-09T07:45:47.131Z,101306.94
2023-05-09T07:48:15.225Z,101309.66
2023-05-09T07:50:43.320Z,101300.69
2023-05-09T07:53:11.284Z,101299.06
2023-05-09T07:55:39.118Z,101295.28
2023-05-09T07:58:07.012Z,101297.16
2023-05-09T08:00:36.206Z,101285.25
2023-05-09T08:03:04.362Z,101277.09
2023-05-09T08:05:32.265Z,101277.09
2023-05-09T08:08:00.282Z,101273.56
2023-05-09T08:10:30.614Z,101261.25
2023-05-09T08:12:58.472Z,101268.97
2023-05-09T08:15:26.352Z,101260.81
2023-05-09T08:17:55.682Z,101261.41
2023-05-09T08:20:24.417Z,101251.63
2023-05-09T08:22:52.258Z,101255.16
2023-05-09T08:25:20.927Z,101248.91
2023-05-09T08:27:49.202Z,101239.94
2023-05-09T08:30:17.950Z,101241.59
2023-05-09T08:32:45.994Z,101239.69
2023-05-09T08:35:15.514Z,101234.25
2023-05-09T08:37:43.975Z,101244.94
2023-05-09T08:40:12.433Z,101223.72
2023-05-09T08:42:41.533Z,101239.44
2023-05-09T08:45:11.409Z,101234.00
2023-05-09T08:47:40.126Z,101238.63
2023-05-09T08:50:09.429Z,101235.09
2023-05-09T08:52:38.935Z,101226.94
2023-05-09T08:55:06.853Z,101212.75
2023-05-09T08:57:36.430Z,101226.13
2023-05-09T09:00:06.291Z,101219.31
2023-05-09T09:02:34.453Z,101227.59
2023-05-09T09:05:03.033Z,101228.66
2023-05-09T09:07:34.978Z,101229.97
2023-05-09T09:10:04.696Z,101220.19
2023-05-09T09:12:33.841Z,101208.97
2023-05-09T09:15:05.963Z,101218.81
2023-05-09T09:17:36.833Z,101218.56
2023-05-09T09:20:08.925Z,101216.94
2023-05-09T09:22:38.929Z,101214.34
2023-05-09T09:25:08.769Z,101215.91
2023-05-09T09:27:36.629Z,101209.09
2023-05-09T09:30:12.335Z,101199.31
2023-05-09T09:32:41.163Z,101202.03
2023-05-09T09:35:10.820Z,101202.03
2023-05-09T09:37:41.831Z,101192.00
2023-05-09T09:40:13.084Z,101190.34
2023-05-09T09:42:45.133Z,101191.19
2023-05-09T09:45:14.400Z,101192.00
2023-05-09T09:47:44.289Z,101189.28
2023-05-09T09:50:14.234Z,101186.56
2023-05-09T09:52:49.961Z,101181.16
2023-05-09T09:55:19.690Z,101187.44
2023-05-09T09:57:48.491Z,101180.94
2023-05-09T10:00:17.974Z,101177.69
2023-05-09T10:02:50.732Z,101176.03
2023-05-09T10:05:23.100Z,101159.38
2023-05-09T10:07:53.971Z,101172.25
2023-05-09T10:10:23.908Z,101176.84
2023-05-09T10:12:54.780Z,101171.69
2023-05-09T10:15:24.834Z,101168.72
2023-05-09T10:17:56.066Z,101173.31
2023-05-09T10:20:25.179Z,101168.72
2023-05-09T10:22:55.953Z,101173.31
2023-05-09T10:25:29.519Z,101155.59
2023-05-09T10:28:01.336Z,101166.00
2023-05-09T10:30:34.080Z,101163.28
2023-05-09T10:33:05.411Z,101158.94
2023-05-09T10:35:38.032Z,101143.09
2023-05-09T10:38:08.130Z,101154.59
2023-05-09T10:40:37.536Z,101146.44
2023-05-09T10:43:07.171Z,101146.44
2023-05-09T10:45:35.606Z,101135.59
2023-05-09T10:48:08.913Z,101141.84
2023-05-09T10:50:40.435Z,101136.66
2023-05-09T10:53:11.592Z,101127.19
2023-05-09T10:55:50.851Z,101128.69
2023-05-09T10:58:24.904Z,101131.03
2023-05-09T11:00:55.181Z,101122.59
2023-05-09T11:03:25.020Z,101109.16
2023-05-09T11:05:54.835Z,101120.38
2023-05-09T11:08:25.175Z,101118.75
2023-05-09T11:10:55.185Z,101112.75
2023-05-09T11:13:25.077Z,101112.50
2023-05-09T11:16:09.471Z,101110.03
2023-05-09T11:18:51.925Z,101108.41
2023-05-09T11:21:21.666Z,101108.78
2023-05-09T11:23:51.844Z,101102.22
2023-05-09T11:26:24.208Z,101100.00
2023-05-09T11:28:56.792Z,101098.38
2023-05-09T11:31:24.762Z,101094.84
2023-05-09T11:33:58.329Z,101094.84
2023-05-09T11:36:31.908Z,101094.84
2023-05-09T11:39:06.270Z,101090.47
2023-05-09T11:41:41.280Z,101092.13
2023-05-09T11:44:16.930Z,101085.06
2023-05-09T11:46:45.086Z,101074.22
2023-05-09T11:49:13.176Z,101086.94
2023-05-09T11:51:41.463Z,101069.84
2023-05-09T11:54:11.354Z,101074.47
2023-05-09T11:56:42.648Z,101076.09
2023-05-09T11:59:13.179Z,101074.78
2023-05-09T12:01:41.192Z,101068.28
2023-05-09T12:04:09.289Z,101068.53
2023-05-09T12:06:37.820Z,101060.94
2023-05-09T12:09:06.292Z,101050.00
2023-05-09T12:11:35.151Z,101061.47
2023-05-09T12:14:05.388Z,101059.81
2023-05-09T12:16:33.281Z,101060.66
2023-05-09T12:19:01.714Z,101047.53
2023-05-09T12:21:29.785Z,101057.38
2023-05-09T12:23:57.746Z,101055.72
2023-05-09T12:26:25.724Z,101051.13
2023-05-09T12:28:53.611Z,101051.38
2023-05-09T12:31:23.681Z,101048.41
2023-05-09T12:33:51.941Z,101036.75
2023-05-09T12:36:19.806Z,101039.44
2023-05-09T12:38:54.522Z,101038.63
2023-05-09T12:43:58.346Z,101030.28
2023-05-09T12:46:27.841Z,101022.72
2023-05-09T12:48:55.735Z,101024.31
2023-05-09T12:51:23.754Z,101021.84
2023-05-09T12:53:52.533Z,101018.31
2023-05-09T12:56:22.908Z,101019.66
2023-05-09T12:58:52.342Z,101020.72
2023-05-09T13:01:20.915Z,101013.91
2023-05-09T13:03:54.197Z,101019.91
2023-05-09T13:06:22.914Z,101015.56
2023-05-09T13:08:59.068Z,101009.31
2023-05-09T13:11:26.919Z,101010.69
2023-05-09T13:13:55.482Z,101010.13
2023-05-09T13:16:23.653Z,101002.81
2023-05-09T13:18:52.924Z,100998.47
2023-05-09T13:21:21.057Z,101001.16
2023-05-09T13:23:50.204Z,100994.09
2023-05-09T13:26:18.062Z,100985.16
2023-05-09T13:28:45.868Z,100988.69
2023-05-09T13:31:13.782Z,100985.72
2023-05-09T13:33:41.575Z,100979.22
2023-05-09T13:36:10.978Z,100980.28
2023-05-09T13:38:40.781Z,100971.91
2023-05-09T13:41:08.985Z,100974.03
2023-05-09T13:43:37.572Z,100976.50
2023-05-09T13:46:05.474Z,100970.25
2023-05-09T13:48:33.617Z,100972.16
2023-05-09T13:51:01.394Z,100968.63
2023-05-09T13:53:30.894Z,100969.44
2023-05-09T13:55:58.776Z,100957.78
2023-05-09T13:58:26.698Z,100953.16
2023-05-09T14:00:54.521Z,100953.16
2023-05-09T14:03:22.373Z,100948.56
2023-05-09T14:05:50.237Z,100938.22
2023-05-09T14:08:18.063Z,100943.94
2023-05-09T14:10:48.035Z,100945.84
2023-05-09T14:13:16.253Z,100950.19
2023-05-09T14:15:44.093Z,100948.56
2023-05-09T14:18:15.952Z,100938.78
2023-05-09T14:20:45.959Z,100938.00
2023-05-09T14:23:13.809Z,100929.31
2023-05-09T14:25:41.575Z,100926.84
2023-05-09T14:28:10.809Z,100927.69
2023-05-09T14:30:38.755Z,100920.88
2023-05-09T14:33:07.047Z,100924.41
2023-05-09T14:35:35.704Z,100921.69
2023-05-09T14:38:04.329Z,100916.53
2023-05-09T14:40:32.631Z,100921.13
2023-05-09T14:43:02.553Z,100910.28
2023-05-09T14:45:33.104Z,100911.09
2023-05-09T14:48:01.472Z,100904.84
2023-05-09T14:50:29.948Z,100899.44
2023-05-09T14:52:59.873Z,100899.44
2023-05-09T14:55:27.983Z,100895.09
2023-05-09T14:57:56.202Z,100896.97
2023-05-09T15:00:26.131Z,100898.88
2023-05-09T15:02:55.968Z,100891.56
2023-05-09T15:05:23.815Z,100873.03
2023-05-09T15:07:51.731Z,100886.13
2023-05-09T15:10:19.546Z,100878.81
2023-05-09T15:12:47.430Z,100876.91
2023-05-09T15:15:17.688Z,100875.28
2023-05-09T15:17:46.276Z,100876.09
2023-05-09T15:20:16.412Z,100868.78
2023-05-09T15:22:45.015Z,100868.22
2023-05-09T15:25:12.814Z,100877.72
2023-05-09T15:27:41.170Z,100865.50
2023-05-09T15:30:10.620Z,100865.81
2023-05-09T15:32:41.223Z,100863.91
2023-05-09T15:35:09.915Z,100861.19
2023-05-09T15:37:39.237Z,100862.00
2023-05-09T15:40:08.617Z,100846.22
2023-05-09T15:42:36.801Z,100856.59
2023-05-09T15:45:04.962Z,100855.47
2023-05-09T15:47:32.813Z,100858.50
2023-05-09T15:50:00.934Z,100853.06
2023-05-09T15:52:29.242Z,100851.44
2023-05-09T15:54:58.877Z,100853.06
2023-05-09T15:57:26.799Z,100849.53
2023-05-09T15:59:55.977Z,100845.19
2023-05-09T16:02:24.108Z,100837.88
2023-05-09T16:04:52.612Z,100843.28
2023-05-09T16:07:20.756Z,100838.69
2023-05-09T16:09:48.928Z,100838.94
2023-05-09T16:12:18.149Z,100837.31
2023-05-09T16:14:45.961Z,100836.22
2023-05-09T16:17:14.031Z,100838.94
2023-05-09T16:19:42.467Z,100836.22
2023-05-09T16:22:10.600Z,100830.25
2023-05-09T16:24:38.620Z,100832.69
2023-05-09T16:27:06.388Z,100831.88
2023-05-09T16:29:35.638Z,100833.78
2023-05-09T16:32:03.677Z,100831.88
2023-05-09T16:34:31.825Z,100820.22
2023-05-09T16:37:01.990Z,100822.94
2023-05-09T16:39:30.708Z,100815.63
2023-05-09T16:41:59.569Z,100815.88
2023-05-09T16:44:27.479Z,100822.94
2023-05-09T16:46:59.613Z,100812.91
2023-05-09T16:49:28.351Z,100815.06
2023-05-09T16:51:56.179Z,100813.16
2023-05-09T16:54:24.190Z,100806.91
2023-05-09T16:56:52.175Z,100798.22
2023-05-09T16:59:20.194Z,100801.75
2023-05-09T17:01:48.718Z,100797.16
2023-05-09T17:04:18.032Z,100787.34
2023-05-09T17:06:45.937Z,100800.69
2023-05-09T17:09:13.755Z,100801.75
2023-05-09T17:11:41.804Z,100808.25
2023-05-09T17:14:09.586Z,100800.94
2023-05-09T17:16:38.213Z,100804.72
2023-05-09T17:19:06.268Z,100801.19
2023-05-09T17:21:35.465Z,100803.91
2023-05-09T17:24:03.254Z,100810.41
2023-05-09T17:26:31.425Z,100806.06
2023-05-09T17:28:59.465Z,100809.34
2023-05-09T17:31:27.464Z,100794.38
2023-05-09T17:33:55.246Z,100804.72
2023-05-09T17:36:23.031Z,100801.19
2023-05-09T17:38:52.353Z,100793.06
2023-05-09T17:41:20.177Z,100793.06
2023-05-09T17:43:48.059Z,100795.78
2023-05-09T17:46:16.034Z,100796.84
2023-05-09T17:48:44.628Z,100796.59
2023-05-09T17:51:12.586Z,100799.56
2023-05-09T17:53:40.355Z,100792.50
2023-05-09T17:56:09.620Z,100790.59
2023-05-09T17:58:37.435Z,100799.00
2023-05-09T18:01:05.758Z,100787.34
2023-05-09T18:03:34.063Z,100784.94
2023-05-09T18:06:02.169Z,100790.34
2023-05-09T18:08:30.368Z,100789.78
2023-05-09T18:10:58.907Z,100770.78
2023-05-09T18:13:28.217Z,100795.50
2023-05-09T18:16:00.006Z,100791.97
2023-05-09T18:18:28.853Z,100790.34
2023-05-09T18:20:56.841Z,100788.72
2023-05-09T18:23:25.833Z,100794.13
2023-05-09T18:25:55.108Z,100792.50
2023-05-09T18:28:25.671Z,100788.16
2023-05-09T18:30:55.503Z,100790.06
2023-05-09T18:33:23.872Z,100791.94
2023-05-09T18:35:51.744Z,100791.38
2023-05-09T18:38:19.824Z,100791.66
2023-05-09T18:40:48.413Z,100799.78
2023-05-09T18:43:16.894Z,100798.16
2023-05-09T18:45:47.883Z,100791.34
2023-05-09T18:48:17.682Z,100791.34
2023-05-09T18:50:45.528Z,100788.91
2023-05-09T18:53:13.477Z,100799.75
2023-05-09T18:55:42.738Z,100798.13
2023-05-09T18:58:10.714Z,100798.38
2023-05-09T19:00:39.380Z,100798.38
2023-05-09T19:03:07.395Z,100795.66
2023-05-09T19:05:36.798Z,100800.53
2023-05-09T19:08:04.742Z,100800.53
2023-05-09T19:10:33.761Z,100796.19
2023-05-09T19:13:01.696Z,100798.88
2023-05-09T19:15:30.181Z,100789.13
2023-05-09T19:17:58.075Z,100793.72
2023-05-09T19:20:26.359Z,100794.81
2023-05-09T19:22:55.535Z,100797.50
2023-05-09T19:25:23.463Z,100809.44
2023-05-09T19:27:52.625Z,100809.44
2023-05-09T19:30:22.298Z,100804.00
2023-05-09T19:32:50.387Z,100804.28
2023-05-09T19:35:18.517Z,100812.41
2023-05-09T19:37:46.269Z,100814.28
2023-05-09T19:40:15.615Z,100810.78
2023-05-09T19:42:43.545Z,100812.66
2023-05-09T19:45:12.184Z,100809.94
2023-05-09T19:47:39.970Z,100818.34
2023-05-09T19:50:08.869Z,100809.41
2023-05-09T19:52:37.359Z,100808.56
2023-05-09T19:55:05.950Z,100807.75
2023-05-09T19:57:35.083Z,100808.56
2023-05-09T20:00:03.260Z,100816.97
2023-05-09T20:02:31.101Z,100816.97
2023-05-09T20:04:58.924Z,100817.22
2023-05-09T20:07:26.754Z,100825.34
2023-05-09T20:09:54.699Z,100818.31
2023-05-09T20:12:22.647Z,100819.38
2023-05-09T20:14:51.825Z,100817.75
2023-05-09T20:17:19.979Z,100820.44
2023-05-09T20:19:47.952Z,100821.53
2023-05-09T20:22:15.805Z,100823.41
2023-05-09T20:24:43.672Z,100817.19
2023-05-09T20:27:11.408Z,100820.97
2023-05-09T20:29:39.266Z,100817.44
2023-05-09T20:32:08.596Z,100820.41
2023-05-09T20:34:36.413Z,100816.88
2023-05-09T20:37:04.192Z,100825.00
2023-05-09T20:39:31.977Z,100811.38
2023-05-09T20:42:02.407Z,100815.50
2023-05-09T20:44:30.382Z,100814.69
2023-05-09T20:46:58.407Z,100817.66
2023-05-09T20:49:27.873Z,100819.53
2023-05-09T20:51:56.173Z,100820.63
2023-05-09T20:54:24.409Z,100823.31
2023-05-09T20:56:52.302Z,100820.88
2023-05-09T20:59:20.073Z,100824.66
2023-05-09T21:01:48.097Z,100827.63
2023-05-09T21:04:16.369Z,100829.25
2023-05-09T21:06:45.644Z,100827.88
2023-05-09T21:09:13.581Z,100820.56
2023-05-09T21:11:41.706Z,100829.78
2023-05-09T21:14:10.132Z,100820.81
2023-05-09T21:16:37.978Z,100822.47
2023-05-09T21:19:06.060Z,100822.72
2023-05-09T21:21:33.997Z,100825.44
2023-05-09T21:24:04.515Z,100825.69
2023-05-09T21:26:32.267Z,100823.22
2023-05-09T21:29:00.177Z,100809.06
2023-05-09T21:31:27.998Z,100821.34
2023-05-09T21:33:55.874Z,100820.53
2023-05-09T21:36:23.636Z,100818.06
2023-05-09T21:38:51.478Z,100818.88
2023-05-09T21:41:21.936Z,100819.97
2023-05-09T21:43:49.736Z,100818.31
2023-05-09T21:46:17.500Z,100819.16
2023-05-09T21:48:45.278Z,100815.88
2023-05-09T21:51:13.040Z,100818.56
2023-05-09T21:53:40.929Z,100813.41
2023-05-09T21:56:09.183Z,100804.72
2023-05-09T21:58:38.353Z,100808.25
2023-05-09T22:01:06.210Z,100807.44
2023-05-09T22:03:34.108Z,100805.81
2023-05-09T22:06:01.997Z,100810.41
2023-05-09T22:08:29.903Z,100809.59
2023-05-09T22:10:57.688Z,100812.59
2023-05-09T22:13:26.817Z,100808.25
2023-05-09T22:15:59.109Z,100809.31
2023-05-09T22:18:27.175Z,100823.91
2023-05-09T22:20:54.940Z,100813.06
2023-05-09T22:23:22.722Z,100812.25
2023-05-09T22:25:50.462Z,100814.38
2023-05-09T22:28:18.279Z,100813.56
2023-05-09T22:30:47.256Z,100804.88
2023-05-09T22:33:16.425Z,100808.41
2023-05-09T22:35:44.298Z,100814.09
2023-05-09T22:38:12.087Z,100812.44
2023-05-09T22:40:39.952Z,100808.09
2023-05-09T22:43:08.070Z,100818.94
2023-05-09T22:45:35.950Z,100816.22
2023-05-09T22:48:03.846Z,100814.59
2023-05-09T22:50:33.143Z,100821.66
2023-05-09T22:53:01.305Z,100822.72
2023-05-09T22:55:29.129Z,100815.66
2023-05-09T22:57:56.886Z,100809.44
2023-05-09T23:00:24.900Z,100811.31
2023-05-09T23:02:52.781Z,100808.59
2023-05-09T23:05:20.848Z,100820.25
2023-05-09T23:07:50.051Z,100813.22
2023-05-09T23:10:18.065Z,100811.31
2023-05-09T23:12:46.131Z,100814.03
2023-05-09T23:15:13.926Z,100809.69
2023-05-09T23:17:41.819Z,100804.25
2023-05-09T23:20:10.680Z,100805.34
2023-05-09T23:22:38.479Z,100801.00
2023-05-09T23:25:09.538Z,100799.34
2023-05-09T23:27:40.649Z,100806.41
2023-05-09T23:30:10.416Z,100806.41
2023-05-09T23:32:38.307Z,100804.78
2023-05-09T23:35:07.254Z,100807.47
2023-05-09T23:37:35.023Z,100806.66
2023-05-09T23:40:02.924Z,100805.84
2023-05-09T23:42:32.127Z,100803.13
2023-05-09T23:45:00.334Z,100806.91
2023-05-09T23:47:28.177Z,100806.09
2023-05-09T23:49:56.037Z,100802.84
2023-05-09T23:52:23.877Z,100796.59
2023-05-09T23:54:51.642Z,100801.19
2023-05-09T23:57:19.425Z,100800.38
2023-05-09T23:59:48.605Z,100796.84
